Time,TemperatureF,DewpointF,PressureIn,WindDirection,WindDirectionDegrees,WindSpeedMPH,WindSpeedGustMPH,Humidity,HourlyPrecipIn,Conditions,Clouds,dailyrainin,SoftwareType,DateUTC
2013-01-27 00:00:00,21.9,16.1,30.46,ENE,65,5.0,5.0,78,0.00,,CLR,0.00,VWS V14.01,2013-01-27 05:00:00,
2013-01-27 00:06:00,21.8,16.0,30.47,ENE,75,2.5,5.0,78,0.00,,CLR,0.00,VWS V14.01,2013-01-27 05:06:00,
2013-01-27 00:11:00,21.8,16.0,30.47,NE,55,2.5,5.0,78,0.00,,CLR,0.00,VWS V14.01,2013-01-27 05:11:00,
2013-01-27 00:15:00,21.4,15.6,30.47,ENE,61,2.5,5.0,78,0.00,,-RA,0.00,VWS V14.01,2013-01-27 05:15:00,
2013-01-27 00:16:00,21.7,15.9,30.47,ENE,63,2.5,3.8,78,0.00,,CLR,0.00,VWS V14.01,2013-01-27 05:16:00,
2013-01-27 00:21:00,21.7,15.9,30.47,East,84,1.2,5.0,78,0.00,,CLR,0.00,VWS V14.01,2013-01-27 05:21:00,
2013-01-27 00:26:00,21.7,15.9,30.47,ENE,66,2.5,5.0,78,0.00,,CLR,0.00,VWS V14.01,2013-01-27 05:26:00,
2013-01-27 00:30:00,21.2,15.7,30.47,ENE,73,1.2,3.8,79,0.00,,-RA,0.00,VWS V14.01,2013-01-27 05:30:00,
2013-01-27 00:31:00,21.6,15.8,30.47,East,91,0.0,2.5,78,0.00,,CLR,0.00,VWS V14.01,2013-01-27 05:31:00,
2013-01-27 00:36:00,21.5,15.7,30.46,ENE,75,2.5,3.8,78,0.00,,CLR,0.00,VWS V14.01,2013-01-27 05:36:00,
2013-01-27 00:41:00,21.4,15.6,30.46,East,79,1.2,5.0,78,0.00,,CLR,0.00,VWS V14.01,2013-01-27 05:41:00,
2013-01-27 00:45:00,20.9,15.4,30.46,ENE,76,1.2,3.8,79,0.00,,-RA,0.00,VWS V14.01,2013-01-27 05:45:00,
2013-01-27 00:46:00,21.3,15.5,30.46,ENE,75,0.0,1.2,78,0.00,,CLR,0.00,VWS V14.01,2013-01-27 05:46:00,
2013-01-27 00:51:00,21.3,15.5,30.47,ENE,63,5.0,5.0,78,0.00,,CLR,0.00,VWS V14.01,2013-01-27 05:51:00,
2013-01-27 00:56:00,21.4,15.6,30.46,ENE,75,2.5,5.0,78,0.00,,CLR,0.00,VWS V14.01,2013-01-27 05:56:00,
2013-01-27 01:00:00,20.7,15.5,30.46,East,83,2.5,5.0,80,0.00,,SCT080,0.00,VWS V14.01,2013-01-27 06:00:00,
2013-01-27 01:01:00,21.4,15.6,30.47,ENE,68,3.8,3.8,78,0.00,,CLR,0.00,VWS V14.01,2013-01-27 06:01:00,
2013-01-27 01:06:00,21.5,15.7,30.47,ENE,61,1.2,5.0,78,0.00,,CLR,0.00,VWS V14.01,2013-01-27 06:06:00,
2013-01-27 01:11:00,21.4,15.6,30.47,NE,49,1.2,5.0,78,0.00,,CLR,0.00,VWS V14.01,2013-01-27 06:11:00,
2013-01-27 01:15:00,20.9,15.7,30.47,ENE,71,2.5,3.8,80,0.00,,-RA,0.00,VWS V14.01,2013-01-27 06:15:00,
2013-01-27 01:16:00,21.4,15.6,30.47,ENE,60,1.2,2.5,78,0.00,,CLR,0.00,VWS V14.01,2013-01-27 06:16:00,
2013-01-27 01:21:00,21.3,15.5,30.47,ENE,61,3.8,3.8,78,0.00,,CLR,0.00,VWS V14.01,2013-01-27 06:21:00,
2013-01-27 01:26:00,21.3,15.5,30.47,ENE,70,2.5,3.8,78,0.00,,CLR,0.00,VWS V14.01,2013-01-27 06:26:00,
2013-01-27 01:30:00,21.0,15.5,30.47,ENE,65,3.8,5.0,79,0.00,,-RA,0.00,VWS V14.01,2013-01-27 06:30:00,
2013-01-27 01:31:00,21.2,15.4,30.47,ENE,76,1.2,2.5,78,0.00,,CLR,0.00,VWS V14.01,2013-01-27 06:31:00,
2013-01-27 01:36:00,21.2,15.7,30.47,East,94,2.5,3.8,79,0.00,,CLR,0.00,VWS V14.01,2013-01-27 06:36:00,
2013-01-27 01:41:00,21.1,15.6,30.47,ENE,66,2.5,3.8,79,0.00,,CLR,0.00,VWS V14.01,2013-01-27 06:41:00,
2013-01-27 01:45:00,20.9,15.7,30.46,East,86,1.2,5.0,80,0.00,,-RA,0.00,VWS V14.01,2013-01-27 06:45:00,
2013-01-27 01:46:00,20.9,15.4,30.46,East,84,2.5,2.5,79,0.00,,CLR,0.00,VWS V14.01,2013-01-27 06:46:00,
2013-01-27 01:51:00,20.9,15.4,30.46,ENE,75,2.5,3.8,79,0.00,,CLR,0.00,VWS V14.01,2013-01-27 06:51:00,
2013-01-27 01:56:00,20.8,15.6,30.46,East,96,1.2,5.0,80,0.00,,CLR,0.00,VWS V14.01,2013-01-27 06:56:00,
2013-01-27 02:00:00,21.0,15.8,30.46,ENE,77,3.8,5.0,80,0.00,,-RA,0.00,VWS V14.01,2013-01-27 07:00:00,
2013-01-27 02:01:00,20.7,15.5,30.46,East,96,3.8,3.8,80,0.00,,CLR,0.00,VWS V14.01,2013-01-27 07:01:00,
2013-01-27 02:06:00,20.7,15.5,30.46,East,96,2.5,3.8,80,0.00,,CLR,0.00,VWS V14.01,2013-01-27 07:06:00,
2013-01-27 02:13:00,20.8,15.6,30.47,ENE,72,2.5,3.8,80,0.00,,CLR,0.00,VWS V14.01,2013-01-27 07:13:00,
2013-01-27 02:15:00,20.8,15.6,30.47,ENE,71,2.5,5.0,80,0.00,,-RA,0.00,VWS V14.01,2013-01-27 07:15:00,
2013-01-27 02:18:00,20.9,15.7,30.47,ENE,65,2.5,3.8,80,0.00,,CLR,0.00,VWS V14.01,2013-01-27 07:18:00,
2013-01-27 02:23:00,21.0,15.5,30.47,ENE,68,3.8,3.8,79,0.00,,CLR,0.00,VWS V14.01,2013-01-27 07:23:00,
2013-01-27 02:28:00,21.0,15.5,30.47,East,94,1.2,3.8,79,0.00,,CLR,0.00,VWS V14.01,2013-01-27 07:28:00,
2013-01-27 02:30:00,20.7,15.5,30.47,ENE,78,2.5,3.8,80,0.00,,-RA,0.00,VWS V14.01,2013-01-27 07:30:00,
2013-01-27 02:33:00,21.0,15.5,30.47,ENE,72,2.5,3.8,79,0.00,,CLR,0.00,VWS V14.01,2013-01-27 07:33:00,
2013-01-27 02:38:00,21.0,15.8,30.46,ENE,59,2.5,5.0,80,0.00,,CLR,0.00,VWS V14.01,2013-01-27 07:38:00,
2013-01-27 02:43:00,20.9,15.7,30.46,ENE,63,3.8,5.0,80,0.00,,CLR,0.00,VWS V14.01,2013-01-27 07:43:00,
2013-01-27 02:45:00,20.5,15.6,30.47,ENE,73,2.5,5.0,81,0.00,,-RA,0.00,VWS V14.01,2013-01-27 07:45:00,
2013-01-27 02:48:00,20.9,15.7,30.46,ENE,68,1.2,3.8,80,0.00,,CLR,0.00,VWS V14.01,2013-01-27 07:48:00,
2013-01-27 02:53:00,21.0,15.8,30.47,ENE,65,3.8,5.0,80,0.00,,CLR,0.00,VWS V14.01,2013-01-27 07:53:00,
2013-01-27 02:58:00,21.1,15.9,30.47,ENE,69,2.5,5.0,80,0.00,,CLR,0.00,VWS V14.01,2013-01-27 07:58:00,
2013-01-27 03:00:00,20.4,15.5,30.46,East,87,2.5,3.8,81,0.00,,-RA,0.00,VWS V14.01,2013-01-27 08:00:00,
2013-01-27 03:03:00,21.0,15.8,30.47,ENE,60,3.8,3.8,80,0.00,,CLR,0.00,VWS V14.01,2013-01-27 08:03:00,
2013-01-27 03:08:00,20.9,15.7,30.47,ENE,70,1.2,5.0,80,0.00,,CLR,0.00,VWS V14.01,2013-01-27 08:08:00,
2013-01-27 03:13:00,20.8,15.6,30.47,ENE,68,2.5,5.0,80,0.00,,CLR,0.00,VWS V14.01,2013-01-27 08:13:00,
2013-01-27 03:15:00,20.5,15.9,30.45,ENE,65,1.2,3.8,82,0.00,,-RA,0.00,VWS V14.01,2013-01-27 08:15:00,
2013-01-27 03:18:00,20.8,15.6,30.47,ENE,63,2.5,3.8,80,0.00,,CLR,0.00,VWS V14.01,2013-01-27 08:18:00,
2013-01-27 03:23:00,20.8,15.6,30.47,ENE,71,2.5,3.8,80,0.00,,CLR,0.00,VWS V14.01,2013-01-27 08:23:00,
2013-01-27 03:28:00,20.7,15.5,30.47,East,89,1.2,3.8,80,0.00,,CLR,0.00,VWS V14.01,2013-01-27 08:28:00,
2013-01-27 03:30:00,20.6,16.0,30.44,ENE,66,3.8,5.0,82,0.00,,-RA,0.00,VWS V14.01,2013-01-27 08:30:00,
2013-01-27 03:33:00,20.7,15.8,30.47,East,99,1.2,5.0,81,0.00,,CLR,0.00,VWS V14.01,2013-01-27 08:33:00,
2013-01-27 03:38:00,20.5,15.6,30.47,East,87,2.5,5.0,81,0.00,,CLR,0.00,VWS V14.01,2013-01-27 08:38:00,
2013-01-27 03:43:00,20.5,15.6,30.47,East,82,1.2,5.0,81,0.00,,CLR,0.00,VWS V14.01,2013-01-27 08:43:00,
2013-01-27 03:45:00,20.5,15.9,30.44,ENE,67,3.8,6.2,82,0.00,,-RA,0.00,VWS V14.01,2013-01-27 08:45:00,
2013-01-27 03:48:00,20.5,15.6,30.47,East,79,1.2,2.5,81,0.00,,CLR,0.00,VWS V14.01,2013-01-27 08:48:00,
2013-01-27 03:53:00,20.4,15.5,30.46,ENE,69,2.5,3.8,81,0.00,,CLR,0.00,VWS V14.01,2013-01-27 08:53:00,
2013-01-27 03:58:00,20.5,15.6,30.46,ESE,107,2.5,3.8,81,0.00,,CLR,0.00,VWS V14.01,2013-01-27 08:58:00,
2013-01-27 04:00:00,20.5,15.9,30.44,ENE,68,3.8,3.8,82,0.00,,-RA,0.00,VWS V14.01,2013-01-27 09:00:00,
2013-01-27 04:03:00,20.3,15.7,30.45,East,81,1.2,3.8,82,0.00,,CLR,0.00,VWS V14.01,2013-01-27 09:03:00,
2013-01-27 04:08:00,20.3,15.7,30.45,ENE,70,3.8,3.8,82,0.00,,CLR,0.00,VWS V14.01,2013-01-27 09:08:00,
2013-01-27 04:13:00,20.5,15.9,30.45,ENE,75,2.5,3.8,82,0.00,,CLR,0.00,VWS V14.01,2013-01-27 09:13:00,
2013-01-27 04:15:00,20.7,16.1,30.44,ENE,76,3.8,5.0,82,0.00,,-RA,0.00,VWS V14.01,2013-01-27 09:15:00,
2013-01-27 04:18:00,20.5,15.9,30.45,East,82,1.2,3.8,82,0.00,,CLR,0.00,VWS V14.01,2013-01-27 09:18:00,
2013-01-27 04:23:00,20.5,15.9,30.45,ENE,65,2.5,5.0,82,0.00,,CLR,0.00,VWS V14.01,2013-01-27 09:23:00,
2013-01-27 04:28:00,20.5,15.9,30.45,East,84,2.5,5.0,82,0.00,,CLR,0.00,VWS V14.01,2013-01-27 09:28:00,
2013-01-27 04:30:00,20.7,16.1,30.44,ENE,65,2.5,3.8,82,0.00,,-RA,0.00,VWS V14.01,2013-01-27 09:30:00,
2013-01-27 04:33:00,20.6,16.0,30.44,ENE,68,2.5,3.8,82,0.00,,CLR,0.00,VWS V14.01,2013-01-27 09:33:00,
2013-01-27 04:38:00,20.6,16.0,30.44,ENE,68,2.5,5.0,82,0.00,,CLR,0.00,VWS V14.01,2013-01-27 09:38:00,
2013-01-27 04:43:00,20.6,16.0,30.44,ENE,69,2.5,5.0,82,0.00,,CLR,0.00,VWS V14.01,2013-01-27 09:43:00,
2013-01-27 04:45:00,20.5,16.2,30.45,ENE,76,2.5,3.8,83,0.00,,-RA,0.00,VWS V14.01,2013-01-27 09:45:00,
2013-01-27 04:48:00,20.6,16.0,30.44,ENE,77,2.5,3.8,82,0.00,,CLR,0.00,VWS V14.01,2013-01-27 09:48:00,
2013-01-27 04:53:00,20.5,15.9,30.44,East,79,1.2,3.8,82,0.00,,CLR,0.00,VWS V14.01,2013-01-27 09:53:00,
2013-01-27 04:58:00,20.4,15.8,30.44,ENE,70,3.8,3.8,82,0.00,,CLR,0.00,VWS V14.01,2013-01-27 09:58:00,
2013-01-27 05:00:00,20.3,16.0,30.45,ENE,71,2.5,3.8,83,0.00,,-RA,0.00,VWS V14.01,2013-01-27 10:00:00,
2013-01-27 05:03:00,20.6,16.0,30.44,ENE,66,1.2,3.8,82,0.00,,CLR,0.00,VWS V14.01,2013-01-27 10:03:00,
2013-01-27 05:08:00,20.6,16.0,30.44,NE,56,2.5,5.0,82,0.00,,CLR,0.00,VWS V14.01,2013-01-27 10:08:00,
2013-01-27 05:13:00,20.7,16.1,30.44,ENE,69,2.5,5.0,82,0.00,,CLR,0.00,VWS V14.01,2013-01-27 10:13:00,
2013-01-27 05:15:00,20.5,16.2,30.44,ENE,63,5.0,5.0,83,0.00,,-RA,0.00,VWS V14.01,2013-01-27 10:15:00,
2013-01-27 05:18:00,20.8,16.2,30.44,ENE,73,1.2,3.8,82,0.00,,CLR,0.00,VWS V14.01,2013-01-27 10:18:00,
2013-01-27 05:23:00,20.8,16.2,30.44,ENE,69,2.5,3.8,82,0.00,,CLR,0.00,VWS V14.01,2013-01-27 10:23:00,
2013-01-27 05:28:00,20.8,16.2,30.44,East,84,2.5,3.8,82,0.00,,CLR,0.00,VWS V14.01,2013-01-27 10:28:00,
2013-01-27 05:30:00,20.7,16.4,30.45,ENE,73,2.5,6.2,83,0.00,,-RA,0.00,VWS V14.01,2013-01-27 10:30:00,
2013-01-27 05:33:00,20.7,16.1,30.44,ENE,76,1.2,3.8,82,0.00,,CLR,0.00,VWS V14.01,2013-01-27 10:33:00,
2013-01-27 05:38:00,20.6,16.0,30.45,ENE,66,2.5,3.8,82,0.00,,CLR,0.00,VWS V14.01,2013-01-27 10:38:00,
2013-01-27 05:43:00,20.5,16.2,30.45,ENE,76,2.5,3.8,83,0.00,,CLR,0.00,VWS V14.01,2013-01-27 10:43:00,
2013-01-27 05:45:00,20.8,16.5,30.45,ENE,72,3.8,8.8,83,0.00,,-RA,0.00,VWS V14.01,2013-01-27 10:45:00,
2013-01-27 05:48:00,20.4,16.1,30.45,ENE,68,2.5,2.5,83,0.00,,CLR,0.00,VWS V14.01,2013-01-27 10:48:00,
2013-01-27 05:53:00,20.3,16.0,30.45,ENE,68,2.5,3.8,83,0.00,,CLR,0.00,VWS V14.01,2013-01-27 10:53:00,
2013-01-27 05:58:00,20.3,16.0,30.45,ENE,71,3.8,3.8,83,0.00,,CLR,0.00,VWS V14.01,2013-01-27 10:58:00,
2013-01-27 06:00:00,20.8,16.5,30.45,East,81,2.5,5.0,83,0.00,,-RA,0.00,VWS V14.01,2013-01-27 11:00:00,
2013-01-27 06:03:00,20.3,16.0,30.45,ENE,70,3.8,3.8,83,0.00,,CLR,0.00,VWS V14.01,2013-01-27 11:03:00,
2013-01-27 06:08:00,20.3,16.0,30.45,ENE,65,2.5,3.8,83,0.00,,CLR,0.00,VWS V14.01,2013-01-27 11:08:00,
2013-01-27 06:13:00,20.4,16.4,30.44,ENE,70,2.5,5.0,84,0.00,,CLR,0.00,VWS V14.01,2013-01-27 11:13:00,
2013-01-27 06:15:00,21.0,16.9,30.46,ESE,111,0.0,3.8,84,0.00,,-RA,0.00,VWS V14.01,2013-01-27 11:15:00,
2013-01-27 06:18:00,20.5,16.2,30.45,ENE,70,2.5,5.0,83,0.00,,CLR,0.00,VWS V14.01,2013-01-27 11:18:00,
2013-01-27 06:23:00,20.6,16.3,30.45,ENE,69,2.5,5.0,83,0.00,,CLR,0.00,VWS V14.01,2013-01-27 11:23:00,
2013-01-27 06:28:00,20.7,16.4,30.45,ENE,63,2.5,6.2,83,0.00,,CLR,0.00,VWS V14.01,2013-01-27 11:28:00,
2013-01-27 06:30:00,21.3,17.0,30.46,East,96,2.5,5.0,83,0.00,,-RA,0.00,VWS V14.01,2013-01-27 11:30:00,
2013-01-27 06:33:00,20.7,16.4,30.45,ENE,72,2.5,8.8,83,0.00,,CLR,0.00,VWS V14.01,2013-01-27 11:33:00,
2013-01-27 06:38:00,20.9,16.6,30.45,ENE,63,1.2,8.8,83,0.00,,CLR,0.00,VWS V14.01,2013-01-27 11:38:00,
2013-01-27 06:43:00,20.8,16.5,30.45,ENE,68,3.8,8.8,83,0.00,,CLR,0.00,VWS V14.01,2013-01-27 11:43:00,
2013-01-27 06:45:00,21.5,17.1,30.45,East,86,2.5,5.0,83,0.00,,-RA,0.00,VWS V14.01,2013-01-27 11:45:00,
2013-01-27 06:48:00,20.9,16.6,30.45,ENE,65,3.8,5.0,83,0.00,,CLR,0.00,VWS V14.01,2013-01-27 11:48:00,
2013-01-27 06:53:00,20.9,16.6,30.45,East,84,2.5,5.0,83,0.00,,CLR,0.00,VWS V14.01,2013-01-27 11:53:00,
2013-01-27 06:58:00,20.9,16.6,30.45,ENE,75,2.5,5.0,83,0.00,,CLR,0.00,VWS V14.01,2013-01-27 11:58:00,
2013-01-27 07:00:00,22.0,17.6,30.45,East,87,3.8,7.5,83,0.00,,-RA,0.00,VWS V14.01,2013-01-27 12:00:00,
2013-01-27 07:03:00,20.9,16.6,30.46,East,89,1.2,3.8,83,0.00,,CLR,0.00,VWS V14.01,2013-01-27 12:03:00,
2013-01-27 07:08:00,20.9,16.8,30.46,East,94,1.2,3.8,84,0.00,,CLR,0.00,VWS V14.01,2013-01-27 12:08:00,
2013-01-27 07:13:00,21.0,16.9,30.46,ENE,68,2.5,3.8,84,0.00,,CLR,0.00,VWS V14.01,2013-01-27 12:13:00,
2013-01-27 07:15:00,22.5,17.9,30.45,ESE,105,2.5,6.2,82,0.00,,-RA,0.00,VWS V14.01,2013-01-27 12:15:00,
2013-01-27 07:17:00,21.1,16.8,30.46,ESE,111,2.5,5.0,83,0.00,,CLR,0.00,VWS V14.01,2013-01-27 12:17:00,
2013-01-27 07:22:00,21.2,16.9,30.46,ENE,74,1.2,5.0,83,0.00,,CLR,0.00,VWS V14.01,2013-01-27 12:22:00,
2013-01-27 07:27:00,21.3,17.0,30.46,East,93,3.8,5.0,83,0.00,,CLR,0.00,VWS V14.01,2013-01-27 12:27:00,
2013-01-27 07:30:00,22.8,18.4,30.45,NE,55,2.5,6.2,83,0.00,,-RA,0.00,VWS V14.01,2013-01-27 12:30:00,
2013-01-27 07:32:00,21.3,17.0,30.46,East,89,2.5,5.0,83,0.00,,CLR,0.00,VWS V14.01,2013-01-27 12:32:00,
2013-01-27 07:37:00,21.4,17.0,30.45,ENE,71,3.8,5.0,83,0.00,,CLR,0.00,VWS V14.01,2013-01-27 12:37:00,
2013-01-27 07:42:00,21.5,17.1,30.45,ENE,62,3.8,5.0,83,0.00,,CLR,0.00,VWS V14.01,2013-01-27 12:42:00,
2013-01-27 07:45:00,23.0,18.3,30.45,East,87,5.0,5.0,82,0.00,,-RA,0.00,VWS V14.01,2013-01-27 12:45:00,
2013-01-27 07:47:00,21.6,17.2,30.45,ENE,61,2.5,5.0,83,0.00,,CLR,0.00,VWS V14.01,2013-01-27 12:47:00,
2013-01-27 07:52:00,21.7,17.3,30.45,ENE,73,2.5,7.5,83,0.00,,CLR,0.00,VWS V14.01,2013-01-27 12:52:00,
2013-01-27 07:57:00,21.9,17.5,30.45,ENE,70,2.5,7.5,83,0.00,,CLR,0.00,VWS V14.01,2013-01-27 12:57:00,
2013-01-27 08:00:00,23.4,19.0,30.44,ENE,60,2.5,5.0,83,0.00,,-RA,0.00,VWS V14.01,2013-01-27 13:00:00,
2013-01-27 08:02:00,22.1,17.7,30.45,ENE,74,3.8,6.2,83,0.00,,CLR,0.00,VWS V14.01,2013-01-27 13:02:00,
2013-01-27 08:07:00,22.3,17.9,30.45,ENE,73,3.8,6.2,83,0.00,,CLR,0.00,VWS V14.01,2013-01-27 13:07:00,
2013-01-27 08:12:00,22.4,17.8,30.46,SW,215,2.5,6.2,82,0.00,,CLR,0.00,VWS V14.01,2013-01-27 13:12:00,
2013-01-27 08:15:00,23.8,19.1,30.44,ENE,65,3.8,6.2,82,0.00,,-RA,0.00,VWS V14.01,2013-01-27 13:15:00,
2013-01-27 08:17:00,22.5,18.1,30.45,ENE,62,3.8,3.8,83,0.00,,CLR,0.00,VWS V14.01,2013-01-27 13:17:00,
2013-01-27 08:22:00,22.6,18.2,30.45,ENE,73,2.5,3.8,83,0.00,,CLR,0.00,VWS V14.01,2013-01-27 13:22:00,
2013-01-27 08:27:00,22.7,18.3,30.45,ENE,78,1.2,6.2,83,0.00,,CLR,0.00,VWS V14.01,2013-01-27 13:27:00,
2013-01-27 08:30:00,24.2,19.5,30.45,ENE,77,1.2,6.2,82,0.00,,-RA,0.00,VWS V14.01,2013-01-27 13:30:00,
2013-01-27 08:32:00,22.8,18.4,30.45,East,84,1.2,3.8,83,0.00,,CLR,0.00,VWS V14.01,2013-01-27 13:32:00,
2013-01-27 08:37:00,22.9,18.5,30.44,ESE,110,5.0,5.0,83,0.00,,CLR,0.00,VWS V14.01,2013-01-27 13:37:00,
2013-01-27 08:42:00,23.0,18.6,30.44,ENE,76,2.5,5.0,83,0.00,,CLR,0.00,VWS V14.01,2013-01-27 13:42:00,
2013-01-27 08:45:00,24.7,20.0,30.44,ENE,63,2.5,6.2,82,0.00,,-RA,0.00,VWS V14.01,2013-01-27 13:45:00,
2013-01-27 08:47:00,23.1,18.7,30.45,ESE,103,0.0,5.0,83,0.00,,CLR,0.00,VWS V14.01,2013-01-27 13:47:00,
2013-01-27 08:52:00,23.2,18.8,30.44,ENE,77,3.8,5.0,83,0.00,,CLR,0.00,VWS V14.01,2013-01-27 13:52:00,
2013-01-27 08:57:00,23.3,18.9,30.44,East,97,2.5,5.0,83,0.00,,CLR,0.00,VWS V14.01,2013-01-27 13:57:00,
2013-01-27 09:00:00,25.4,20.7,30.44,ENE,65,1.2,6.2,82,0.00,,-RA,0.00,VWS V14.01,2013-01-27 14:00:00,
2013-01-27 09:02:00,23.4,18.7,30.44,ENE,77,6.2,6.2,82,0.00,,CLR,0.00,VWS V14.01,2013-01-27 14:02:00,
2013-01-27 09:07:00,23.5,18.8,30.44,East,83,1.2,6.2,82,0.00,,CLR,0.00,VWS V14.01,2013-01-27 14:07:00,
2013-01-27 09:12:00,23.7,19.0,30.44,East,94,2.5,6.2,82,0.00,,CLR,0.00,VWS V14.01,2013-01-27 14:12:00,
2013-01-27 09:15:00,25.7,20.7,30.44,NW,326,0.0,5.0,81,0.00,,-RA,0.00,VWS V14.01,2013-01-27 14:15:00,
2013-01-27 09:17:00,23.8,19.4,30.44,East,82,2.5,6.2,83,0.00,,CLR,0.00,VWS V14.01,2013-01-27 14:17:00,
2013-01-27 09:22:00,24.0,19.3,30.45,ENE,66,2.5,6.2,82,0.00,,CLR,0.00,VWS V14.01,2013-01-27 14:22:00,
2013-01-27 09:27:00,24.1,19.4,30.45,ENE,72,2.5,6.2,82,0.00,,CLR,0.00,VWS V14.01,2013-01-27 14:27:00,
2013-01-27 09:30:00,26.6,21.3,30.45,East,86,2.5,5.0,80,0.00,,-RA,0.00,VWS V14.01,2013-01-27 14:30:00,
2013-01-27 09:32:00,24.3,19.6,30.45,SE,125,1.2,2.5,82,0.00,,,0.00,VWS V14.01,2013-01-27 14:32:00,
2013-01-27 09:37:00,24.5,19.8,30.45,ENE,65,2.5,3.8,82,0.00,,,0.00,VWS V14.01,2013-01-27 14:37:00,
2013-01-27 09:42:00,24.6,19.9,30.44,East,96,1.2,3.8,82,0.00,,,0.00,VWS V14.01,2013-01-27 14:42:00,
2013-01-27 09:45:00,27.3,22.0,30.44,East,81,0.0,6.2,80,0.00,,-RA,0.00,VWS V14.01,2013-01-27 14:45:00,
2013-01-27 09:47:00,24.8,20.1,30.44,East,81,2.5,3.8,82,0.00,,,0.00,VWS V14.01,2013-01-27 14:47:00,
2013-01-27 09:52:00,25.0,20.3,30.44,ESE,114,0.0,6.2,82,0.00,,,0.00,VWS V14.01,2013-01-27 14:52:00,
2013-01-27 09:57:00,25.3,20.6,30.44,ENE,71,1.2,6.2,82,0.00,,,0.00,VWS V14.01,2013-01-27 14:57:00,
2013-01-27 10:00:00,28.0,22.3,30.44,East,98,5.0,7.5,79,0.00,,-RA,0.00,VWS V14.01,2013-01-27 15:00:00,
2013-01-27 10:02:00,25.4,20.7,30.44,ENE,63,2.5,3.8,82,0.00,,,0.00,VWS V14.01,2013-01-27 15:02:00,
2013-01-27 10:07:00,25.5,20.8,30.44,ENE,72,2.5,5.0,82,0.00,,,0.00,VWS V14.01,2013-01-27 15:07:00,
2013-01-27 10:12:00,25.7,21.0,30.44,ENE,66,2.5,5.0,82,0.00,,,0.00,VWS V14.01,2013-01-27 15:12:00,
2013-01-27 10:15:00,29.2,22.9,30.44,SE,141,1.2,5.0,77,0.00,,-RA,0.00,VWS V14.01,2013-01-27 15:15:00,
2013-01-27 10:17:00,25.9,20.9,30.44,East,89,2.5,2.5,81,0.00,,,0.00,VWS V14.01,2013-01-27 15:17:00,
2013-01-27 10:22:00,26.2,21.2,30.44,East,84,1.2,3.8,81,0.00,,,0.00,VWS V14.01,2013-01-27 15:22:00,
2013-01-27 10:27:00,26.5,21.2,30.44,ENE,72,3.8,5.0,80,0.00,,,0.00,VWS V14.01,2013-01-27 15:27:00,
2013-01-27 10:30:00,30.1,23.1,30.45,SSE,150,1.2,5.0,75,0.00,,-RA,0.00,VWS V14.01,2013-01-27 15:30:00,
2013-01-27 10:32:00,26.7,21.4,30.44,ENE,78,1.2,2.5,80,0.00,,,0.00,VWS V14.01,2013-01-27 15:32:00,
2013-01-27 10:37:00,27.0,22.0,30.44,East,89,0.0,3.8,81,0.00,,,0.00,VWS V14.01,2013-01-27 15:37:00,
2013-01-27 10:42:00,27.3,22.0,30.44,ENE,57,2.5,6.2,80,0.00,,,0.00,VWS V14.01,2013-01-27 15:42:00,
2013-01-27 10:45:00,30.6,23.0,30.44,ENE,70,1.2,5.0,73,0.00,,-RA,0.00,VWS V14.01,2013-01-27 15:45:00,
2013-01-27 10:47:00,27.4,22.0,30.44,ENE,58,1.2,2.5,80,0.00,,,0.00,VWS V14.01,2013-01-27 15:47:00,
2013-01-27 10:52:00,27.6,22.0,30.44,ENE,75,2.5,7.5,79,0.00,,,0.00,VWS V14.01,2013-01-27 15:52:00,
2013-01-27 10:57:00,27.8,22.1,30.44,WSW,241,3.8,7.5,79,0.00,,,0.00,VWS V14.01,2013-01-27 15:57:00,
2013-01-27 11:00:00,31.3,23.0,30.43,ENE,73,3.8,5.0,71,0.00,,-RA,0.00,VWS V14.01,2013-01-27 16:00:00,
2013-01-27 11:02:00,28.1,22.1,30.44,East,79,5.0,5.0,78,0.00,,,0.00,VWS V14.01,2013-01-27 16:02:00,
2013-01-27 11:07:00,28.5,22.5,30.44,East,91,2.5,5.0,78,0.00,,,0.00,VWS V14.01,2013-01-27 16:07:00,
2013-01-27 11:12:00,29.0,22.7,30.44,ENE,75,0.0,5.0,77,0.00,,,0.00,VWS V14.01,2013-01-27 16:12:00,
2013-01-27 11:15:00,31.6,23.6,30.42,SE,126,1.2,5.0,72,0.00,,-RA,0.00,VWS V14.01,2013-01-27 16:15:00,
2013-01-27 11:17:00,29.4,23.1,30.45,ESE,114,2.5,2.5,77,0.00,,,0.00,VWS V14.01,2013-01-27 16:17:00,
2013-01-27 11:22:00,29.7,23.1,30.45,East,98,1.2,3.8,76,0.00,,,0.00,VWS V14.01,2013-01-27 16:22:00,
2013-01-27 11:27:00,30.0,23.0,30.45,ENE,72,0.0,5.0,75,0.00,,,0.00,VWS V14.01,2013-01-27 16:27:00,
2013-01-27 11:30:00,31.6,23.0,30.42,SE,132,0.0,5.0,70,0.00,,-RA,0.00,VWS V14.01,2013-01-27 16:30:00,
2013-01-27 11:32:00,30.2,22.9,30.44,ESE,104,1.2,5.0,74,0.00,,OVC100,0.00,VWS V14.01,2013-01-27 16:32:00,
2013-01-27 11:37:00,30.3,23.3,30.44,SE,146,0.0,5.0,75,0.00,,OVC100,0.00,VWS V14.01,2013-01-27 16:37:00,
2013-01-27 11:42:00,30.7,23.4,30.44,ENE,72,2.5,5.0,74,0.00,,OVC100,0.00,VWS V14.01,2013-01-27 16:42:00,
2013-01-27 11:45:00,32.0,23.0,30.40,NE,53,5.0,6.2,69,0.00,,-RA,0.00,VWS V14.01,2013-01-27 16:45:00,
2013-01-27 11:47:00,30.6,23.0,30.44,NE,45,2.5,2.5,73,0.00,,OVC100,0.00,VWS V14.01,2013-01-27 16:47:00,
2013-01-27 11:52:00,30.9,23.6,30.44,SSE,152,1.2,2.5,74,0.00,,OVC100,0.00,VWS V14.01,2013-01-27 16:52:00,
2013-01-27 11:57:00,31.3,23.3,30.43,NNE,31,2.5,5.0,72,0.00,,OVC100,0.00,VWS V14.01,2013-01-27 16:57:00,
2013-01-27 12:00:00,32.3,22.9,30.39,East,88,3.8,6.2,68,0.00,,-RA,0.00,VWS V14.01,2013-01-27 17:00:00,
2013-01-27 12:02:00,31.3,23.0,30.43,ENE,67,2.5,3.8,71,0.00,,OVC100,0.00,VWS V14.01,2013-01-27 17:02:00,
2013-01-27 12:07:00,31.4,23.4,30.42,ENE,73,1.2,3.8,72,0.00,,OVC100,0.00,VWS V14.01,2013-01-27 17:07:00,
2013-01-27 12:12:00,31.5,23.2,30.42,East,82,0.0,5.0,71,0.00,,OVC100,0.00,VWS V14.01,2013-01-27 17:12:00,
2013-01-27 12:15:00,32.9,23.2,30.38,North,6,2.5,6.2,67,0.00,,-RA,0.00,VWS V14.01,2013-01-27 17:15:00,
2013-01-27 12:17:00,31.7,23.4,30.42,East,81,3.8,3.8,71,0.00,,OVC100,0.00,VWS V14.01,2013-01-27 17:17:00,
2013-01-27 12:22:00,31.7,23.0,30.42,ENE,67,3.8,3.8,70,0.00,,OVC100,0.00,VWS V14.01,2013-01-27 17:22:00,
2013-01-27 12:27:00,31.5,22.5,30.42,East,86,0.0,5.0,69,0.00,,OVC100,0.00,VWS V14.01,2013-01-27 17:27:00,
2013-01-27 12:30:00,33.7,22.8,30.38,ENE,61,3.8,5.0,64,0.00,,-RA,0.00,VWS V14.01,2013-01-27 17:30:00,
2013-01-27 12:32:00,31.7,23.4,30.42,East,91,5.0,5.0,71,0.00,,OVC100,0.00,VWS V14.01,2013-01-27 17:32:00,
2013-01-27 12:37:00,31.9,23.2,30.41,East,93,1.2,5.0,70,0.00,,OVC100,0.00,VWS V14.01,2013-01-27 17:37:00,
2013-01-27 12:42:00,32.0,23.0,30.40,ENE,72,3.8,5.0,69,0.00,,OVC100,0.00,VWS V14.01,2013-01-27 17:42:00,
2013-01-27 12:45:00,34.2,22.9,30.36,ENE,65,2.5,6.2,63,0.00,,-RA,0.00,VWS V14.01,2013-01-27 17:45:00,
2013-01-27 12:47:00,32.0,23.0,30.40,East,86,2.5,5.0,69,0.00,,OVC100,0.00,VWS V14.01,2013-01-27 17:47:00,
2013-01-27 12:52:00,32.2,23.2,30.39,ENE,60,3.8,6.2,69,0.00,,OVC100,0.00,VWS V14.01,2013-01-27 17:52:00,
2013-01-27 12:57:00,32.3,23.3,30.39,ENE,64,1.2,6.2,69,0.00,,OVC100,0.00,VWS V14.01,2013-01-27 17:57:00,
2013-01-27 13:00:00,34.5,23.6,30.35,East,86,6.2,7.5,64,0.00,,SCT080,0.00,VWS V14.01,2013-01-27 18:00:00,
2013-01-27 13:02:00,32.3,23.3,30.38,ENE,60,3.8,5.0,69,0.00,,OVC100,0.00,VWS V14.01,2013-01-27 18:02:00,
2013-01-27 13:07:00,32.5,23.1,30.38,ENE,57,1.2,6.2,68,0.00,,OVC100,0.00,VWS V14.01,2013-01-27 18:07:00,
2013-01-27 13:12:00,32.7,23.0,30.38,ENE,63,1.2,6.2,67,0.00,,OVC100,0.00,VWS V14.01,2013-01-27 18:12:00,
2013-01-27 13:15:00,34.2,22.9,30.34,ENE,70,2.5,10.0,63,0.00,,SCT080,0.00,VWS V14.01,2013-01-27 18:15:00,
2013-01-27 13:17:00,33.1,23.4,30.38,SE,127,1.2,3.8,67,0.00,,OVC100,0.00,VWS V14.01,2013-01-27 18:17:00,
2013-01-27 13:22:00,33.4,22.5,30.38,East,91,3.8,5.0,64,0.00,,OVC100,0.00,VWS V14.01,2013-01-27 18:22:00,
2013-01-27 13:27:00,33.5,22.6,30.38,ENE,65,2.5,5.0,64,0.00,,OVC100,0.00,VWS V14.01,2013-01-27 18:27:00,
2013-01-27 13:30:00,34.3,23.0,30.33,East,91,5.0,5.0,63,0.00,,-RA,0.00,VWS V14.01,2013-01-27 18:30:00,
2013-01-27 13:32:00,33.7,22.5,30.37,East,90,5.0,6.2,63,0.00,,OVC095,0.00,VWS V14.01,2013-01-27 18:32:00,
2013-01-27 13:37:00,33.9,23.0,30.37,ENE,75,3.8,6.2,64,0.00,,OVC095,0.00,VWS V14.01,2013-01-27 18:37:00,
2013-01-27 13:42:00,34.1,22.8,30.37,ESE,103,1.2,6.2,63,0.00,,OVC095,0.00,VWS V14.01,2013-01-27 18:42:00,
2013-01-27 13:45:00,34.4,23.1,30.32,SSE,158,0.0,5.0,63,0.00,,-RA,0.00,VWS V14.01,2013-01-27 18:45:00,
2013-01-27 13:47:00,34.3,22.6,30.36,East,83,5.0,6.2,62,0.00,,OVC095,0.00,VWS V14.01,2013-01-27 18:47:00,
2013-01-27 13:52:00,34.3,23.0,30.35,ENE,70,2.5,6.2,63,0.00,,OVC095,0.00,VWS V14.01,2013-01-27 18:52:00,
2013-01-27 13:57:00,34.5,23.2,30.35,East,91,1.2,6.2,63,0.00,,OVC095,0.00,VWS V14.01,2013-01-27 18:57:00,
2013-01-27 14:00:00,34.8,23.9,30.32,ENE,65,2.5,5.0,64,0.01,,-RA,0.01,VWS V14.01,2013-01-27 19:00:00,
2013-01-27 14:02:00,34.4,22.7,30.35,East,88,3.8,6.2,62,0.00,,OVC095,0.00,VWS V14.01,2013-01-27 19:02:00,
2013-01-27 14:07:00,34.2,22.5,30.35,ENE,72,2.5,10.0,62,0.00,,OVC095,0.00,VWS V14.01,2013-01-27 19:07:00,
2013-01-27 14:12:00,34.1,22.8,30.34,ESE,120,3.8,10.0,63,0.00,,OVC095,0.00,VWS V14.01,2013-01-27 19:12:00,
2013-01-27 14:15:00,34.8,23.5,30.31,ENE,63,3.8,3.8,63,0.01,,-RA,0.01,VWS V14.01,2013-01-27 19:15:00,
2013-01-27 14:17:00,34.1,22.8,30.33,NE,52,2.5,5.0,63,0.00,,OVC095,0.00,VWS V14.01,2013-01-27 19:17:00,
2013-01-27 14:22:00,34.2,23.7,30.33,East,98,0.0,5.0,65,0.00,,OVC095,0.00,VWS V14.01,2013-01-27 19:22:00,
2013-01-27 14:27:00,34.3,22.6,30.33,East,86,5.0,5.0,62,0.00,,OVC095,0.00,VWS V14.01,2013-01-27 19:27:00,
2013-01-27 14:30:00,34.7,23.4,30.29,ENE,66,3.8,7.5,63,0.01,,-RA,0.01,VWS V14.01,2013-01-27 19:30:00,
2013-01-27 14:32:00,34.3,23.4,30.34,SE,131,0.0,5.0,64,0.00,,OVC075,0.00,VWS V14.01,2013-01-27 19:32:00,
2013-01-27 14:37:00,34.4,23.5,30.33,East,95,2.5,5.0,64,0.00,,OVC075,0.00,VWS V14.01,2013-01-27 19:37:00,
2013-01-27 14:42:00,34.4,23.5,30.32,East,79,3.8,5.0,64,0.00,,OVC075,0.00,VWS V14.01,2013-01-27 19:42:00,
2013-01-27 14:45:00,35.0,23.3,30.28,ENE,60,1.2,8.8,62,0.01,,-RA,0.01,VWS V14.01,2013-01-27 19:45:00,
2013-01-27 14:47:00,34.5,23.2,30.32,East,93,2.5,2.5,63,0.00,,OVC075,0.00,VWS V14.01,2013-01-27 19:47:00,
2013-01-27 14:52:00,34.6,23.3,30.32,East,101,1.2,5.0,63,0.00,,OVC075,0.00,VWS V14.01,2013-01-27 19:52:00,
2013-01-27 14:57:00,34.8,23.9,30.32,East,87,1.2,5.0,64,0.00,,OVC075,0.00,VWS V14.01,2013-01-27 19:57:00,
2013-01-27 15:00:00,35.1,23.4,30.28,ESE,105,0.0,5.0,62,0.01,,-RA,0.01,VWS V14.01,2013-01-27 20:00:00,
2013-01-27 15:02:00,34.8,23.9,30.32,ENE,68,1.2,2.5,64,0.01,,OVC075,0.01,VWS V14.01,2013-01-27 20:02:00,
2013-01-27 15:07:00,34.8,23.9,30.31,ENE,68,2.5,3.8,64,0.01,,OVC075,0.01,VWS V14.01,2013-01-27 20:07:00,
2013-01-27 15:12:00,34.8,23.5,30.32,East,96,2.5,3.8,63,0.01,,OVC075,0.01,VWS V14.01,2013-01-27 20:12:00,
2013-01-27 15:15:00,35.4,23.3,30.29,East,100,2.5,3.8,61,0.00,,-RA,0.01,VWS V14.01,2013-01-27 20:15:00,
2013-01-27 15:17:00,34.8,23.9,30.31,ENE,68,1.2,3.8,64,0.01,,OVC075,0.01,VWS V14.01,2013-01-27 20:17:00,
2013-01-27 15:22:00,34.8,23.9,30.30,ENE,72,2.5,5.0,64,0.01,,OVC075,0.01,VWS V14.01,2013-01-27 20:22:00,
2013-01-27 15:27:00,34.8,23.9,30.29,ESE,107,2.5,7.5,64,0.01,,OVC075,0.01,VWS V14.01,2013-01-27 20:27:00,
2013-01-27 15:30:00,35.5,24.2,30.28,East,86,1.2,5.0,63,0.00,,-RA,0.01,VWS V14.01,2013-01-27 20:30:00,
2013-01-27 15:32:00,34.7,23.4,30.29,ESE,104,1.2,3.8,63,0.01,,OVC060,0.01,VWS V14.01,2013-01-27 20:32:00,
2013-01-27 15:37:00,34.9,23.2,30.29,East,90,2.5,5.0,62,0.01,,OVC060,0.01,VWS V14.01,2013-01-27 20:37:00,
2013-01-27 15:42:00,35.0,23.3,30.29,ENE,72,3.8,8.8,62,0.01,,OVC060,0.01,VWS V14.01,2013-01-27 20:42:00,
2013-01-27 15:45:00,35.4,24.5,30.28,ESE,120,1.2,6.2,64,0.00,,-RA,0.01,VWS V14.01,2013-01-27 20:45:00,
2013-01-27 15:47:00,35.0,23.3,30.28,East,97,1.2,3.8,62,0.01,,OVC060,0.01,VWS V14.01,2013-01-27 20:47:00,
2013-01-27 15:52:00,35.1,23.8,30.29,ESE,113,2.5,3.8,63,0.01,,OVC060,0.01,VWS V14.01,2013-01-27 20:52:00,
2013-01-27 15:57:00,35.1,23.4,30.28,ENE,68,2.5,3.8,62,0.01,,OVC060,0.01,VWS V14.01,2013-01-27 20:57:00,
2013-01-27 16:00:00,35.1,25.6,30.27,ESE,108,3.8,5.0,68,0.00,,-RA,0.01,VWS V14.01,2013-01-27 21:00:00,
2013-01-27 16:02:00,35.1,23.4,30.28,ENE,70,0.0,3.8,62,0.00,,OVC060,0.01,VWS V14.01,2013-01-27 21:02:00,
2013-01-27 16:07:00,35.2,23.5,30.29,NNE,32,1.2,3.8,62,0.00,,OVC060,0.01,VWS V14.01,2013-01-27 21:07:00,
2013-01-27 16:12:00,35.3,23.6,30.29,NE,51,3.8,3.8,62,0.00,,OVC060,0.01,VWS V14.01,2013-01-27 21:12:00,
2013-01-27 16:15:00,34.8,26.4,30.26,East,84,3.8,6.2,71,0.00,,-RA,0.01,VWS V14.01,2013-01-27 21:15:00,
2013-01-27 16:17:00,35.5,23.8,30.29,ESE,114,2.5,2.5,62,0.00,,OVC060,0.01,VWS V14.01,2013-01-27 21:17:00,
2013-01-27 16:22:00,35.5,23.8,30.28,East,101,2.5,5.0,62,0.00,,OVC060,0.01,VWS V14.01,2013-01-27 21:22:00,
2013-01-27 16:27:00,35.5,23.8,30.28,East,89,1.2,5.0,62,0.00,,OVC060,0.01,VWS V14.01,2013-01-27 21:27:00,
2013-01-27 16:30:00,34.3,27.5,30.26,East,86,2.5,5.0,76,0.01,,-RA,0.02,VWS V14.01,2013-01-27 21:30:00,
2013-01-27 16:32:00,35.4,23.7,30.28,East,98,1.2,5.0,62,0.00,,OVC060,0.01,VWS V14.01,2013-01-27 21:32:00,
2013-01-27 16:37:00,35.3,24.4,30.28,NE,36,2.5,6.2,64,0.00,,OVC060,0.01,VWS V14.01,2013-01-27 21:37:00,
2013-01-27 16:42:00,35.4,23.7,30.28,SE,128,1.2,6.2,62,0.00,,OVC060,0.01,VWS V14.01,2013-01-27 21:42:00,
2013-01-27 16:45:00,33.6,28.1,30.26,East,101,3.8,6.2,80,0.02,,-RA,0.03,VWS V14.01,2013-01-27 21:45:00,
2013-01-27 16:47:00,35.4,24.5,30.28,ESE,121,0.0,2.5,64,0.00,,OVC060,0.01,VWS V14.01,2013-01-27 21:47:00,
2013-01-27 16:52:00,35.3,24.7,30.28,SE,134,1.2,3.8,65,0.00,,OVC060,0.01,VWS V14.01,2013-01-27 21:52:00,
2013-01-27 16:57:00,35.2,25.4,30.27,East,86,2.5,5.0,67,0.00,,OVC060,0.01,VWS V14.01,2013-01-27 21:57:00,
2013-01-27 17:00:00,33.2,28.9,30.26,ENE,70,2.5,5.0,84,0.03,,-RA,0.04,VWS V14.01,2013-01-27 22:00:00,
2013-01-27 17:02:00,35.1,25.3,30.27,East,96,2.5,3.8,67,0.00,,OVC060,0.01,VWS V14.01,2013-01-27 22:02:00,
2013-01-27 17:07:00,35.0,25.5,30.27,ENE,68,2.5,5.0,68,0.00,,OVC060,0.01,VWS V14.01,2013-01-27 22:07:00,
2013-01-27 17:12:00,34.9,26.1,30.27,ENE,73,1.2,6.2,70,0.00,,OVC060,0.01,VWS V14.01,2013-01-27 22:12:00,
2013-01-27 17:15:00,33.1,29.4,30.25,ESE,108,3.8,5.0,86,0.04,,-RA,0.05,VWS V14.01,2013-01-27 22:15:00,
2013-01-27 17:17:00,34.8,26.4,30.27,ENE,66,3.8,5.0,71,0.00,,OVC060,0.01,VWS V14.01,2013-01-27 22:17:00,
2013-01-27 17:22:00,34.6,26.5,30.26,ENE,72,3.8,5.0,72,0.01,,OVC060,0.02,VWS V14.01,2013-01-27 22:22:00,
2013-01-27 17:27:00,34.4,27.3,30.26,ESE,121,2.5,5.0,75,0.01,,OVC060,0.02,VWS V14.01,2013-01-27 22:27:00,
2013-01-27 17:30:00,33.2,29.8,30.26,SE,124,0.0,5.0,87,0.06,,-RA,0.07,VWS V14.01,2013-01-27 22:30:00,
2013-01-27 17:32:00,34.2,27.4,30.26,NE,46,2.5,5.0,76,0.01,,-RA,0.02,VWS V14.01,2013-01-27 22:32:00,
2013-01-27 17:37:00,33.9,27.8,30.26,East,101,2.5,5.0,78,0.02,,-RA,0.03,VWS V14.01,2013-01-27 22:37:00,
2013-01-27 17:42:00,33.7,28.5,30.26,East,83,2.5,5.0,81,0.02,,-RA,0.03,VWS V14.01,2013-01-27 22:42:00,
2013-01-27 17:45:00,33.3,30.4,30.25,ENE,57,2.5,6.2,89,0.07,,-RA,0.09,VWS V14.01,2013-01-27 22:45:00,
2013-01-27 17:47:00,33.5,28.6,30.26,East,101,3.8,5.0,82,0.02,,-RA,0.03,VWS V14.01,2013-01-27 22:47:00,
2013-01-27 17:52:00,33.3,28.4,30.26,East,97,1.2,5.0,82,0.03,,-RA,0.04,VWS V14.01,2013-01-27 22:52:00,
2013-01-27 17:57:00,33.2,28.9,30.26,ESE,119,1.2,5.0,84,0.03,,-RA,0.04,VWS V14.01,2013-01-27 22:57:00,
2013-01-27 18:00:00,33.4,31.1,30.25,ENE,59,2.5,5.0,91,0.08,,-RA,0.11,VWS V14.01,2013-01-27 23:00:00,
2013-01-27 18:02:00,33.2,28.9,30.26,SE,125,1.2,3.8,84,0.03,,-RA,0.04,VWS V14.01,2013-01-27 23:02:00,
2013-01-27 18:07:00,33.1,29.1,30.26,East,91,1.2,3.8,85,0.04,,-RA,0.05,VWS V14.01,2013-01-27 23:07:00,
2013-01-27 18:12:00,33.1,29.4,30.25,SE,128,2.5,5.0,86,0.04,,-RA,0.05,VWS V14.01,2013-01-27 23:12:00,
2013-01-27 18:15:00,33.6,31.5,30.25,ESE,121,1.2,5.0,92,0.10,,-RA,0.14,VWS V14.01,2013-01-27 23:15:00,
2013-01-27 18:17:00,33.1,29.4,30.25,ESE,111,2.5,5.0,86,0.05,,-RA,0.06,VWS V14.01,2013-01-27 23:17:00,
2013-01-27 18:22:00,33.2,29.5,30.25,ESE,103,2.5,5.0,86,0.05,,-RA,0.06,VWS V14.01,2013-01-27 23:22:00,
2013-01-27 18:28:00,33.2,29.8,30.25,SSE,165,2.5,5.0,87,0.06,,-RA,0.07,VWS V14.01,2013-01-27 23:28:00,
2013-01-27 18:30:00,33.7,31.6,30.26,SE,139,0.0,5.0,92,0.10,,-RA,0.15,VWS V14.01,2013-01-27 23:30:00,
2013-01-27 18:33:00,33.2,30.0,30.25,SE,129,1.2,2.5,88,0.06,,-RA,0.08,VWS V14.01,2013-01-27 23:33:00,
2013-01-27 18:38:00,33.2,30.3,30.25,ESE,118,1.2,5.0,89,0.06,,-RA,0.08,VWS V14.01,2013-01-27 23:38:00,
2013-01-27 18:43:00,33.3,30.4,30.25,East,81,2.5,6.2,89,0.07,,-RA,0.09,VWS V14.01,2013-01-27 23:43:00,
2013-01-27 18:45:00,33.9,32.1,30.25,ESE,114,3.8,6.2,93,0.10,,-RA,0.17,VWS V14.01,2013-01-27 23:45:00,
2013-01-27 18:48:00,33.3,30.7,30.25,ESE,118,3.8,3.8,90,0.06,,-RA,0.09,VWS V14.01,2013-01-27 23:48:00,
2013-01-27 18:53:00,33.4,30.8,30.25,SE,129,0.0,5.0,90,0.07,,-RA,0.10,VWS V14.01,2013-01-27 23:53:00,
2013-01-27 18:58:00,33.4,31.1,30.25,ENE,62,5.0,5.0,91,0.07,,-RA,0.10,VWS V14.01,2013-01-27 23:58:00,
2013-01-27 19:00:00,34.0,32.2,30.25,SW,222,1.2,3.8,93,0.10,,-RA,0.19,VWS V14.01,2013-01-28 00:00:00,
2013-01-27 19:03:00,33.4,31.1,30.25,ESE,103,2.5,2.5,91,0.07,,-RA,0.11,VWS V14.01,2013-01-28 00:03:00,
2013-01-27 19:08:00,33.5,31.2,30.25,SSE,157,0.0,5.0,91,0.08,,-RA,0.12,VWS V14.01,2013-01-28 00:08:00,
2013-01-27 19:13:00,33.6,31.5,30.25,ESE,114,1.2,5.0,92,0.09,,-RA,0.13,VWS V14.01,2013-01-28 00:13:00,
2013-01-27 19:15:00,34.1,32.6,30.23,SE,139,1.2,6.2,94,0.08,,-RA,0.19,VWS V14.01,2013-01-28 00:15:00,
2013-01-27 19:18:00,33.6,31.5,30.25,ESE,108,0.0,2.5,92,0.09,,-RA,0.14,VWS V14.01,2013-01-28 00:18:00,
2013-01-27 19:23:00,33.7,31.6,30.26,SW,228,1.2,5.0,92,0.10,,-RA,0.15,VWS V14.01,2013-01-28 00:23:00,
2013-01-27 19:28:00,33.7,31.6,30.26,SE,129,1.2,5.0,92,0.10,,-RA,0.15,VWS V14.01,2013-01-28 00:28:00,
2013-01-27 19:30:00,34.4,32.9,30.22,East,101,3.8,5.0,94,0.05,,-RA,0.19,VWS V14.01,2013-01-28 00:30:00,
2013-01-27 19:33:00,33.7,31.6,30.26,SE,134,1.2,1.2,92,0.09,,-RA,0.16,VWS V14.01,2013-01-28 00:33:00,
2013-01-27 19:38:00,33.8,32.0,30.26,ESE,113,0.0,6.2,93,0.09,,-RA,0.16,VWS V14.01,2013-01-28 00:38:00,
2013-01-27 19:43:00,33.9,32.1,30.25,ENE,73,0.0,6.2,93,0.10,,-RA,0.17,VWS V14.01,2013-01-28 00:43:00,
2013-01-27 19:45:00,34.8,33.2,30.23,SE,136,0.0,7.5,94,0.04,,-RA,0.19,VWS V14.01,2013-01-28 00:45:00,
2013-01-27 19:48:00,33.9,32.1,30.25,ENE,58,2.5,3.8,93,0.09,,-RA,0.18,VWS V14.01,2013-01-28 00:48:00,
2013-01-27 19:53:00,34.0,32.2,30.25,SE,130,2.5,3.8,93,0.09,,-RA,0.18,VWS V14.01,2013-01-28 00:53:00,
2013-01-27 19:58:00,34.0,32.2,30.25,SSE,148,0.0,3.8,93,0.09,,-RA,0.18,VWS V14.01,2013-01-28 00:58:00,
2013-01-27 20:00:00,35.0,33.5,30.22,SE,132,0.0,5.0,94,0.02,,-RA,0.19,VWS V14.01,2013-01-28 01:00:00,
2013-01-27 20:03:00,34.0,32.2,30.24,East,86,2.5,2.5,93,0.08,,-RA,0.19,VWS V14.01,2013-01-28 01:03:00,
2013-01-27 20:08:00,34.0,32.2,30.24,SSE,148,2.5,3.8,93,0.08,,-RA,0.19,VWS V14.01,2013-01-28 01:08:00,
2013-01-27 20:13:00,34.1,32.6,30.23,East,101,2.5,3.8,94,0.08,,-RA,0.19,VWS V14.01,2013-01-28 01:13:00,
2013-01-27 20:15:00,35.2,33.9,30.22,SE,127,3.8,5.0,95,0.00,,-RA,0.19,VWS V14.01,2013-01-28 01:15:00,
2013-01-27 20:18:00,34.2,32.7,30.23,SSE,148,1.2,3.8,94,0.05,,-RA,0.19,VWS V14.01,2013-01-28 01:18:00,
2013-01-27 20:23:00,34.3,32.8,30.23,East,88,1.2,3.8,94,0.05,,-RA,0.19,VWS V14.01,2013-01-28 01:23:00,
2013-01-27 20:28:00,34.4,32.9,30.23,ENE,69,5.0,5.0,94,0.05,,-RA,0.19,VWS V14.01,2013-01-28 01:28:00,
2013-01-27 20:30:00,35.5,34.2,30.21,ESE,122,2.5,7.5,95,0.00,,-RA,0.19,VWS V14.01,2013-01-28 01:30:00,
2013-01-27 20:33:00,34.5,33.0,30.22,East,86,2.5,3.8,94,0.04,,-RA,0.19,VWS V14.01,2013-01-28 01:33:00,
2013-01-27 20:38:00,34.6,33.0,30.23,SE,135,2.5,5.0,94,0.04,,-RA,0.19,VWS V14.01,2013-01-28 01:38:00,
2013-01-27 20:43:00,34.8,33.2,30.23,East,94,1.2,5.0,94,0.04,,-RA,0.19,VWS V14.01,2013-01-28 01:43:00,
2013-01-27 20:45:00,35.9,34.6,30.20,East,81,2.5,6.2,95,0.02,,-RA,0.21,VWS V14.01,2013-01-28 01:45:00,
2013-01-27 20:48:00,34.8,33.2,30.23,SE,141,1.2,3.8,94,0.02,,-RA,0.19,VWS V14.01,2013-01-28 01:48:00,
2013-01-27 20:53:00,34.9,33.3,30.23,ESE,111,2.5,5.0,94,0.02,,-RA,0.19,VWS V14.01,2013-01-28 01:53:00,
2013-01-27 20:58:00,35.0,33.5,30.22,East,81,3.8,5.0,94,0.02,,-RA,0.19,VWS V14.01,2013-01-28 01:58:00,
2013-01-27 21:00:00,36.3,35.0,30.19,SE,142,0.0,7.5,95,0.03,,-RA,0.22,VWS V14.01,2013-01-28 02:00:00,
2013-01-27 21:03:00,35.1,33.5,30.22,ESE,118,2.5,5.0,94,0.00,,-RA,0.19,VWS V14.01,2013-01-28 02:03:00,
2013-01-27 21:08:00,35.1,33.5,30.21,SE,130,1.2,5.0,94,0.00,,-RA,0.19,VWS V14.01,2013-01-28 02:08:00,
2013-01-27 21:13:00,35.2,33.9,30.21,ESE,114,1.2,5.0,95,0.00,,-RA,0.19,VWS V14.01,2013-01-28 02:13:00,
2013-01-27 21:15:00,36.7,35.7,30.19,WSW,248,2.5,6.2,96,0.05,,-RA,0.24,VWS V14.01,2013-01-28 02:15:00,
2013-01-27 21:18:00,35.3,34.0,30.22,SE,134,1.2,5.0,95,0.00,,-RA,0.19,VWS V14.01,2013-01-28 02:18:00,
2013-01-27 21:23:00,35.4,34.1,30.21,ESE,104,3.8,7.5,95,0.00,,-RA,0.19,VWS V14.01,2013-01-28 02:23:00,
2013-01-27 21:28:00,35.5,34.2,30.21,ESE,120,2.5,7.5,95,0.00,,-RA,0.19,VWS V14.01,2013-01-28 02:28:00,
2013-01-27 21:30:00,36.9,35.9,30.17,ESE,105,2.5,6.2,96,0.06,,-RA,0.25,VWS V14.01,2013-01-28 02:30:00,
2013-01-27 21:33:00,35.6,34.3,30.21,SSE,148,2.5,3.8,95,0.00,,-RA,0.19,VWS V14.01,2013-01-28 02:33:00,
2013-01-27 21:38:00,35.7,34.4,30.21,ENE,60,3.8,5.0,95,0.01,,-RA,0.20,VWS V14.01,2013-01-28 02:38:00,
2013-01-27 21:43:00,35.9,34.6,30.20,East,101,1.2,6.2,95,0.01,,-RA,0.20,VWS V14.01,2013-01-28 02:43:00,
2013-01-27 21:45:00,37.2,36.2,30.16,ESE,119,2.5,6.2,96,0.07,,-RA,0.26,VWS V14.01,2013-01-28 02:45:00,
2013-01-27 21:48:00,36.0,34.7,30.20,SE,138,2.5,5.0,95,0.02,,-RA,0.21,VWS V14.01,2013-01-28 02:48:00,
2013-01-27 21:53:00,36.1,34.8,30.20,NE,41,1.2,7.5,95,0.02,,-RA,0.21,VWS V14.01,2013-01-28 02:53:00,
2013-01-27 21:58:00,36.3,35.0,30.19,SE,132,1.2,7.5,95,0.03,,-RA,0.22,VWS V14.01,2013-01-28 02:58:00,
2013-01-27 22:00:00,37.5,36.5,30.15,ENE,76,5.0,7.5,96,0.06,,-RA,0.27,VWS V14.01,2013-01-28 03:00:00,
2013-01-27 22:03:00,36.2,34.9,30.19,ESE,110,2.5,5.0,95,0.03,,-RA,0.22,VWS V14.01,2013-01-28 03:03:00,
2013-01-27 22:08:00,36.4,35.4,30.19,North,355,1.2,6.2,96,0.04,,-RA,0.23,VWS V14.01,2013-01-28 03:08:00,
2013-01-27 22:13:00,36.6,35.6,30.19,SE,125,1.2,6.2,96,0.04,,-RA,0.23,VWS V14.01,2013-01-28 03:13:00,
2013-01-27 22:15:00,37.8,36.8,30.15,SE,141,2.5,7.5,96,0.05,,-RA,0.27,VWS V14.01,2013-01-28 03:15:00,
2013-01-27 22:18:00,36.8,35.8,30.19,South,180,1.2,3.8,96,0.05,,-RA,0.24,VWS V14.01,2013-01-28 03:18:00,
2013-01-27 22:23:00,36.8,35.8,30.18,SE,146,2.5,5.0,96,0.05,,-RA,0.24,VWS V14.01,2013-01-28 03:23:00,
2013-01-27 22:28:00,36.8,35.8,30.17,ESE,120,2.5,6.2,96,0.06,,-RA,0.25,VWS V14.01,2013-01-28 03:28:00,
2013-01-27 22:30:00,38.2,37.2,30.14,East,86,6.2,7.5,96,0.03,,-RA,0.27,VWS V14.01,2013-01-28 03:30:00,
2013-01-27 22:33:00,37.0,36.0,30.17,ESE,120,5.0,6.2,96,0.06,,-RA,0.25,VWS V14.01,2013-01-28 03:33:00,
2013-01-27 22:38:00,37.0,36.0,30.17,SE,146,3.8,6.2,96,0.07,,-RA,0.26,VWS V14.01,2013-01-28 03:38:00,
2013-01-27 22:43:00,37.1,36.1,30.17,SE,125,3.8,6.2,96,0.07,,-RA,0.26,VWS V14.01,2013-01-28 03:43:00,
2013-01-27 22:45:00,38.7,37.7,30.15,ESE,108,2.5,8.8,96,0.02,,-RA,0.27,VWS V14.01,2013-01-28 03:45:00,
2013-01-27 22:48:00,37.1,36.1,30.16,SE,129,3.8,5.0,96,0.05,,-RA,0.26,VWS V14.01,2013-01-28 03:48:00,
2013-01-27 22:53:00,37.3,36.3,30.16,SSE,149,3.8,6.2,96,0.06,,-RA,0.27,VWS V14.01,2013-01-28 03:53:00,
2013-01-27 22:58:00,37.5,36.5,30.15,SSE,159,2.5,7.5,96,0.06,,-RA,0.27,VWS V14.01,2013-01-28 03:58:00,
2013-01-27 23:00:00,39.0,38.0,30.15,ESE,109,3.8,6.2,96,0.01,,-RA,0.27,VWS V14.01,2013-01-28 04:00:00,
2013-01-27 23:03:00,37.6,36.6,30.15,SSW,194,1.2,5.0,96,0.05,,-RA,0.27,VWS V14.01,2013-01-28 04:03:00,
2013-01-27 23:08:00,37.6,36.6,30.15,ESE,121,3.8,7.5,96,0.05,,-RA,0.27,VWS V14.01,2013-01-28 04:08:00,
2013-01-27 23:13:00,37.7,36.7,30.15,SE,132,5.0,7.5,96,0.05,,-RA,0.27,VWS V14.01,2013-01-28 04:13:00,
2013-01-27 23:15:00,39.5,38.5,30.16,SSE,167,2.5,7.5,96,0.00,,-RA,0.00,VWS V14.01,2013-01-28 04:15:00,
2013-01-27 23:18:00,37.9,36.9,30.15,SSE,159,1.2,5.0,96,0.03,,-RA,0.27,VWS V14.01,2013-01-28 04:18:00,
2013-01-27 23:23:00,37.9,36.9,30.15,South,171,5.0,5.0,96,0.03,,-RA,0.27,VWS V14.01,2013-01-28 04:23:00,
2013-01-27 23:28:00,38.1,37.1,30.14,SSE,161,7.5,7.5,96,0.03,,-RA,0.27,VWS V14.01,2013-01-28 04:28:00,
2013-01-27 23:30:00,39.7,38.7,30.17,SE,141,1.2,8.8,96,0.00,,-RA,0.00,VWS V14.01,2013-01-28 04:30:00,
2013-01-27 23:33:00,38.3,37.3,30.15,South,173,1.2,6.2,96,0.02,,,0.27,VWS V14.01,2013-01-28 04:33:00,
2013-01-27 23:38:00,38.3,37.3,30.14,ESE,107,3.8,6.2,96,0.02,,,0.27,VWS V14.01,2013-01-28 04:38:00,
2013-01-27 23:43:00,38.6,37.6,30.15,SW,215,2.5,8.8,96,0.02,,,0.27,VWS V14.01,2013-01-28 04:43:00,
2013-01-27 23:45:00,40.0,39.0,30.17,SSE,148,1.2,5.0,96,0.00,,-RA,0.00,VWS V14.01,2013-01-28 04:45:00,
2013-01-27 23:48:00,38.8,37.8,30.15,ENE,70,3.8,6.2,96,0.01,,,0.27,VWS V14.01,2013-01-28 04:48:00,
2013-01-27 23:53:00,38.9,37.9,30.14,East,98,5.0,6.2,96,0.01,,,0.27,VWS V14.01,2013-01-28 04:53:00,
2013-01-27 23:58:00,38.9,37.9,30.15,NE,51,1.2,6.2,96,0.01,,,0.27,VWS V14.01,2013-01-28 04:58:00,